Main page
METAR-TAF:

METAR-TAF

Airports :

Sloulin Field International Airport

Williston, North Dakota, United States

latitude: 48-10-26N, longitude: 103-38-12W, elevation: 604 m

Current weather observation

The report was made 25 minutes ago, at 09:52 UTC
Wind 11 kt from the North
Temperature 9°C
Humidity 57%
Pressure 1008 hPa
Visibility: 16.1 km
Clear sky

METAR: KISN 220952Z AUTO 36011KT 10SM CLR 09/01 A2977 RMK AO2 SLP084 T00940006

Time: 05:17 (10:17 UTC)

Forecast

The report was made 4 hours and 56 minutes ago, at 05:21 UTC
Forecast valid from 22 at 06 UTC to 23 at 06 UTC
Wind 10 kt from the North
Visibility: 10 km
Broken clouds at a height of 20000 ft
From 22 at 1600 UTC
Wind 16 kt from the North/Northeast with gusts up to 27 kt
Visibility: 10 km
Overcast at a height of 8000 ft
showers in vicinity
From 23 at 0000 UTC
Wind 11 kt from the East/Northeast
Visibility: 10 km
Broken clouds at a height of 10000 ft

TAF: KISN 220521Z 2206/2306 01010KT P6SM BKN200 FM221600 02016G27KT P6SM VCSH OVC080 FM230000 06011KT P6SM BKN100

Weather observations and forecasts of more than 4000 airports (METAR and TAF reports).

The available stations are represented by yellow and red dots on the map.

Hover mouse over dot to see the name of the station.

Then click to see weather observations and forecasts.

To change the map : click on the green buttons with a black cross to zoom in, on the green button with a dash to zoom out, or on the green arrows for adjacent maps.


METAR-TAF: